Time;durP1;ratioP1;P1;durP2;ratioP2;P2;SDS_P1;SDS_P2;PMS_P1;PMS_P2;Temp;Humidity;BMP_temperature;BMP_pressure;BME280_temperature;BME280_humidity;BME280_pressure;Samples;Min_cycle;Max_cycle;Signal;HPM_P1;HPM_P2
2023/10/30 00:01:45;;;;;;;9.25;5.82;;;13.70;83.30;;;;;;4919751;29;20079;-65
2023/10/30 00:04:11;;;;;;;8.95;5.95;;;13.80;83.40;;;;;;4919310;29;20428;-64
2023/10/30 00:06:37;;;;;;;9.18;5.90;;;13.80;83.50;;;;;;4918850;29;20024;-65
2023/10/30 00:09:04;;;;;;;8.15;5.75;;;13.80;83.30;;;;;;4919697;29;20083;-65
2023/10/30 00:11:30;;;;;;;10.25;5.47;;;13.80;83.30;;;;;;4918725;29;20032;-65
2023/10/30 00:13:56;;;;;;;8.80;6.05;;;13.90;83.30;;;;;;4919768;29;20047;-65
2023/10/30 00:16:22;;;;;;;8.82;5.60;;;13.80;83.30;;;;;;4919320;29;20048;-65
2023/10/30 00:18:48;;;;;;;8.05;5.57;;;13.90;83.30;;;;;;4919796;29;20445;-65
2023/10/30 00:21:15;;;;;;;10.80;6.25;;;13.90;83.20;;;;;;4919250;29;20175;-65
2023/10/30 00:23:40;;;;;;;8.23;5.60;;;13.90;83.20;;;;;;4919414;29;20028;-65
2023/10/30 00:26:07;;;;;;;9.48;5.35;;;13.90;83.30;;;;;;4918999;29;20462;-65
2023/10/30 00:28:36;;;;;;;10.90;6.05;;;13.90;83.20;;;;;;4919143;29;20433;-65
2023/10/30 00:31:02;;;;;;;7.78;5.63;;;13.90;83.30;;;;;;4918223;29;20100;-65
2023/10/30 00:33:28;;;;;;;8.38;5.18;;;13.90;83.30;;;;;;4919081;29;20031;-65
2023/10/30 00:35:54;;;;;;;8.40;5.60;;;13.90;83.30;;;;;;4918244;29;20039;-65
2023/10/30 00:38:20;;;;;;;10.27;5.30;;;13.90;83.10;;;;;;4918179;29;20051;-65
2023/10/30 00:40:46;;;;;;;8.65;5.25;;;14.00;83.00;;;;;;4919058;29;20362;-65
2023/10/30 00:43:12;;;;;;;7.75;4.45;;;13.90;83.00;;;;;;4919309;29;20050;-65
2023/10/30 00:45:38;;;;;;;8.15;4.60;;;14.00;83.00;;;;;;4918966;29;20335;-65
2023/10/30 00:48:05;;;;;;;9.02;4.68;;;14.00;83.00;;;;;;4918995;29;20032;-65
2023/10/30 00:50:32;;;;;;;7.45;4.70;;;14.00;83.10;;;;;;4919265;29;20092;-65
2023/10/30 00:52:58;;;;;;;7.57;4.65;;;13.90;83.20;;;;;;4919138;29;20032;-65
2023/10/30 00:55:24;;;;;;;7.97;4.82;;;14.00;83.10;;;;;;4918930;29;20024;-65
2023/10/30 00:57:50;;;;;;;7.10;4.70;;;13.90;83.10;;;;;;4919475;29;20375;-65
2023/10/30 01:00:17;;;;;;;5.60;4.00;;;13.90;83.20;;;;;;4918885;29;20077;-64
2023/10/30 01:02:43;;;;;;;4.95;3.90;;;13.90;83.10;;;;;;4919647;29;20028;-65
2023/10/30 01:05:09;;;;;;;7.60;4.30;;;13.90;83.20;;;;;;4922527;29;20107;-65
2023/10/30 01:07:35;;;;;;;7.18;4.13;;;13.90;83.10;;;;;;4922846;29;20100;-65
2023/10/30 01:10:01;;;;;;;5.65;3.70;;;13.90;83.10;;;;;;4922814;29;20367;-65
2023/10/30 01:12:27;;;;;;;5.63;3.90;;;13.90;83.10;;;;;;4922980;29;20028;-65
2023/10/30 01:14:55;;;;;;;6.50;4.15;;;13.90;83.20;;;;;;4922579;29;20059;-65
2023/10/30 01:17:21;;;;;;;5.78;3.95;;;13.90;83.30;;;;;;4922948;29;20028;-65
2023/10/30 01:19:47;;;;;;;6.13;4.00;;;13.90;83.40;;;;;;4922376;29;20028;-65
2023/10/30 01:22:13;;;;;;;7.20;4.05;;;13.90;83.40;;;;;;4922879;29;20020;-65
2023/10/30 01:24:39;;;;;;;6.13;4.20;;;14.00;83.30;;;;;;4921979;29;20485;-65
2023/10/30 01:27:05;;;;;;;6.93;4.80;;;14.00;83.30;;;;;;4922824;29;20047;-65
2023/10/30 01:29:30;;;;;;;6.53;4.43;;;14.00;83.40;;;;;;4922224;29;20110;-65
2023/10/30 01:31:58;;;;;;;9.65;4.50;;;13.90;83.40;;;;;;4922142;29;20391;-65
2023/10/30 01:34:24;;;;;;;7.28;4.60;;;13.90;83.30;;;;;;4922312;29;20032;-65
2023/10/30 01:36:50;;;;;;;7.60;4.25;;;13.90;83.40;;;;;;4921112;29;20032;-65
2023/10/30 01:39:18;;;;;;;6.22;4.47;;;13.90;83.30;;;;;;4922303;29;20438;-65
2023/10/30 01:41:44;;;;;;;6.53;4.28;;;14.00;83.30;;;;;;4921010;29;20028;-66
2023/10/30 01:44:10;;;;;;;6.72;4.43;;;13.90;83.30;;;;;;4921858;29;20038;-65
2023/10/30 01:46:36;;;;;;;8.32;4.53;;;13.90;83.30;;;;;;4922446;29;20036;-64
2023/10/30 01:49:02;;;;;;;6.30;4.32;;;13.90;83.30;;;;;;4922136;29;20046;-65
2023/10/30 01:51:28;;;;;;;7.40;4.15;;;13.90;83.40;;;;;;4921817;29;20049;-65
2023/10/30 01:53:54;;;;;;;7.32;4.20;;;13.90;83.40;;;;;;4920662;29;20370;-65
2023/10/30 01:56:20;;;;;;;8.63;5.10;;;13.90;83.40;;;;;;4921765;29;20087;-65
2023/10/30 01:58:46;;;;;;;7.25;4.85;;;13.90;83.30;;;;;;4921688;29;20040;-65
2023/10/30 02:01:13;;;;;;;8.60;4.90;;;13.90;83.30;;;;;;4921964;29;20024;-65
2023/10/30 02:03:39;;;;;;;9.23;5.00;;;13.90;83.40;;;;;;4920624;29;20042;-65
2023/10/30 02:06:05;;;;;;;6.75;4.50;;;13.90;83.40;;;;;;4920875;29;20111;-65
2023/10/30 02:08:32;;;;;;;8.75;4.93;;;13.90;83.40;;;;;;4921551;29;20080;-65
2023/10/30 02:10:58;;;;;;;8.60;5.05;;;13.90;83.30;;;;;;4922004;29;20036;-65
2023/10/30 02:13:24;;;;;;;8.63;5.70;;;13.90;83.40;;;;;;4920404;29;20457;-65
2023/10/30 02:15:50;;;;;;;8.52;5.05;;;13.90;83.40;;;;;;4921242;29;20079;-65
2023/10/30 02:18:15;;;;;;;8.07;4.93;;;13.90;83.40;;;;;;4920480;29;20036;-65
2023/10/30 02:20:41;;;;;;;8.15;5.25;;;13.90;83.40;;;;;;4921293;29;20029;-65
2023/10/30 02:23:07;;;;;;;8.02;4.90;;;13.90;83.30;;;;;;4921261;29;20034;-65
2023/10/30 02:25:33;;;;;;;7.18;4.90;;;13.90;83.30;;;;;;4921013;29;20076;-65
2023/10/30 02:27:59;;;;;;;7.43;5.30;;;13.90;83.30;;;;;;4921145;29;20052;-65
2023/10/30 02:30:26;;;;;;;8.35;4.60;;;13.90;83.40;;;;;;4921686;29;20028;-65
2023/10/30 02:32:53;;;;;;;7.90;4.53;;;13.90;83.40;;;;;;4921006;29;20040;-65
2023/10/30 02:35:19;;;;;;;7.13;4.40;;;13.90;83.40;;;;;;4921271;29;20055;-65
2023/10/30 02:37:46;;;;;;;7.82;4.18;;;14.00;83.50;;;;;;4920433;29;20032;-65
2023/10/30 02:40:13;;;;;;;6.72;4.40;;;13.90;83.50;;;;;;4921483;29;20035;-65
2023/10/30 02:42:40;;;;;;;6.32;4.07;;;14.00;83.50;;;;;;4921203;29;20032;-65
2023/10/30 02:45:07;;;;;;;6.45;3.90;;;14.00;83.50;;;;;;4920807;29;20063;-65
2023/10/30 02:47:34;;;;;;;7.45;4.20;;;13.90;83.50;;;;;;4921040;29;20032;-65
2023/10/30 02:50:01;;;;;;;5.88;3.95;;;14.00;83.60;;;;;;4921073;29;20441;-65
2023/10/30 02:52:29;;;;;;;5.65;3.65;;;14.00;83.50;;;;;;4920747;29;20101;-65
2023/10/30 02:54:55;;;;;;;4.90;3.42;;;14.00;83.50;;;;;;4919590;29;20064;-65
2023/10/30 02:57:21;;;;;;;5.30;3.55;;;14.00;83.60;;;;;;4920622;29;20088;-65
2023/10/30 02:59:47;;;;;;;5.88;3.70;;;14.00;83.50;;;;;;4920601;29;20497;-65
2023/10/30 03:02:13;;;;;;;4.70;3.40;;;14.00;83.50;;;;;;4921045;29;20028;-65
2023/10/30 03:04:39;;;;;;;5.18;3.63;;;14.00;83.60;;;;;;4919528;29;20119;-65
2023/10/30 03:07:05;;;;;;;6.00;3.75;;;14.00;83.50;;;;;;4920466;29;20060;-65
2023/10/30 03:09:34;;;;;;;5.18;3.40;;;14.00;83.50;;;;;;4920696;29;20494;-65
2023/10/30 03:12:03;;;;;;;6.25;4.10;;;14.00;83.50;;;;;;4920647;29;20111;-65
2023/10/30 03:14:31;;;;;;;6.53;3.97;;;14.00;83.50;;;;;;4920210;29;20068;-65
2023/10/30 03:16:57;;;;;;;5.40;3.80;;;13.90;83.60;;;;;;4920807;29;20032;-65
2023/10/30 03:19:23;;;;;;;5.43;3.67;;;13.90;83.60;;;;;;4920284;29;20050;-65
2023/10/30 03:21:51;;;;;;;5.40;3.88;;;14.00;83.50;;;;;;4920474;29;20119;-65
2023/10/30 03:24:19;;;;;;;6.22;3.78;;;14.00;83.50;;;;;;4919742;29;20116;-65
2023/10/30 03:26:45;;;;;;;5.43;3.45;;;13.90;83.50;;;;;;4919793;29;20039;-65
2023/10/30 03:29:11;;;;;;;7.47;3.60;;;13.90;83.50;;;;;;4920073;29;20032;-65
2023/10/30 03:31:37;;;;;;;5.43;3.88;;;13.90;83.60;;;;;;4920531;29;20043;-65
2023/10/30 03:34:03;;;;;;;7.53;4.15;;;13.90;83.70;;;;;;4919862;29;20071;-65
2023/10/30 03:36:30;;;;;;;5.60;3.95;;;13.90;83.80;;;;;;4919859;29;20087;-65
2023/10/30 03:38:56;;;;;;;6.32;4.28;;;13.90;83.80;;;;;;4919782;29;20060;-66
2023/10/30 03:41:21;;;;;;;6.38;3.90;;;13.90;83.70;;;;;;4919871;29;20048;-65
2023/10/30 03:43:47;;;;;;;5.93;4.35;;;13.90;83.70;;;;;;4919765;29;20023;-65
2023/10/30 03:46:13;;;;;;;6.07;4.00;;;13.90;83.70;;;;;;4920321;29;20028;-65
2023/10/30 03:48:41;;;;;;;7.68;4.40;;;14.00;83.80;;;;;;4919094;29;20052;-65
2023/10/30 03:51:07;;;;;;;7.45;4.22;;;14.00;83.90;;;;;;4919957;29;20036;-65
2023/10/30 03:53:33;;;;;;;10.32;4.97;;;14.00;83.90;;;;;;4918653;29;20397;-65
2023/10/30 03:56:03;;;;;;;5.90;4.40;;;14.00;83.90;;;;;;4918639;29;20111;-65
2023/10/30 03:58:29;;;;;;;6.53;4.43;;;14.10;83.70;;;;;;4920169;29;20036;-65
2023/10/30 04:00:55;;;;;;;6.93;4.88;;;14.10;83.70;;;;;;4920071;29;20028;-65
2023/10/30 04:03:23;;;;;;;7.22;5.15;;;14.10;83.70;;;;;;4918556;29;20381;-66
2023/10/30 04:05:49;;;;;;;5.88;4.22;;;14.10;83.70;;;;;;4919429;29;20028;-65
2023/10/30 04:08:15;;;;;;;7.65;4.63;;;14.10;83.60;;;;;;4919447;29;20474;-66
2023/10/30 04:10:43;;;;;;;7.82;5.20;;;14.10;83.70;;;;;;4919474;29;20032;-65
2023/10/30 04:13:11;;;;;;;8.07;5.07;;;14.10;83.60;;;;;;4920760;29;20390;-65
2023/10/30 04:15:37;;;;;;;6.28;4.70;;;14.10;83.60;;;;;;4917985;29;20024;-65
2023/10/30 04:18:03;;;;;;;8.25;4.97;;;14.10;83.60;;;;;;4919601;29;20035;-66
2023/10/30 04:20:29;;;;;;;9.18;5.20;;;14.10;83.60;;;;;;4919359;29;20466;-66
2023/10/30 04:22:55;;;;;;;8.65;4.97;;;14.10;83.60;;;;;;4919229;29;20028;-66
2023/10/30 04:25:21;;;;;;;7.70;5.40;;;14.00;83.70;;;;;;4918879;29;20175;-65
2023/10/30 04:27:46;;;;;;;9.68;5.47;;;14.10;83.80;;;;;;4919224;29;20031;-66
2023/10/30 04:30:13;;;;;;;9.05;5.57;;;14.00;83.90;;;;;;4919759;29;20028;-65
2023/10/30 04:32:39;;;;;;;6.75;4.90;;;14.10;83.80;;;;;;4919134;29;20032;-65
2023/10/30 04:35:05;;;;;;;6.78;4.80;;;14.10;83.80;;;;;;4919251;29;20050;-66
2023/10/30 04:37:31;;;;;;;8.35;5.72;;;14.10;83.80;;;;;;4919444;29;20032;-65
2023/10/30 04:39:57;;;;;;;8.23;5.18;;;14.10;83.80;;;;;;4925653;29;20095;-65
2023/10/30 04:42:23;;;;;;;7.70;4.95;;;14.10;83.90;;;;;;4925939;29;20025;-65
2023/10/30 04:44:49;;;;;;;7.45;4.88;;;14.10;83.90;;;;;;4924356;29;20032;-65
2023/10/30 04:47:15;;;;;;;8.32;4.95;;;14.10;83.90;;;;;;4924377;29;20045;-65
2023/10/30 04:49:45;;;;;;;7.38;4.63;;;14.10;83.90;;;;;;4925260;29;20035;-65
2023/10/30 04:52:11;;;;;;;7.20;4.85;;;14.10;83.90;;;;;;4924310;29;20357;-65
2023/10/30 04:54:37;;;;;;;7.38;4.82;;;14.20;83.90;;;;;;4925185;29;20040;-66
2023/10/30 04:57:03;;;;;;;6.47;4.50;;;14.20;83.90;;;;;;4925793;29;20034;-65
2023/10/30 04:59:29;;;;;;;6.30;4.82;;;14.20;83.90;;;;;;4924294;29;20024;-65
2023/10/30 05:01:55;;;;;;;8.23;5.32;;;14.20;83.80;;;;;;4924259;29;20032;-65
2023/10/30 05:04:21;;;;;;;6.32;4.68;;;14.20;83.80;;;;;;4925508;29;20414;-65
2023/10/30 05:06:48;;;;;;;6.03;4.70;;;14.20;83.70;;;;;;4925460;29;20438;-65
2023/10/30 05:09:14;;;;;;;8.88;5.32;;;14.20;83.80;;;;;;4925439;29;20036;-65
2023/10/30 05:11:40;;;;;;;9.20;5.40;;;14.30;83.80;;;;;;4924174;29;20358;-65
2023/10/30 05:14:07;;;;;;;9.88;5.20;;;14.30;83.70;;;;;;4924011;29;20119;-65
2023/10/30 05:16:35;;;;;;;9.75;5.43;;;14.30;83.70;;;;;;4925634;29;20024;-65
2023/10/30 05:19:01;;;;;;;8.15;5.00;;;14.30;83.70;;;;;;4925628;29;20020;-65
2023/10/30 05:21:28;;;;;;;7.38;4.80;;;14.30;83.80;;;;;;4924237;29;20441;-65
2023/10/30 05:23:54;;;;;;;7.82;4.90;;;14.40;83.80;;;;;;4924992;29;20370;-66
2023/10/30 05:26:21;;;;;;;8.80;5.05;;;14.40;83.90;;;;;;4924166;29;20056;-65
2023/10/30 05:28:52;;;;;;;6.35;4.72;;;14.40;83.90;;;;;;4924978;29;20075;-65
2023/10/30 05:31:18;;;;;;;6.80;4.95;;;14.40;84.00;;;;;;4925479;29;20043;-65
2023/10/30 05:33:44;;;;;;;7.65;4.85;;;14.40;84.00;;;;;;4923921;29;20028;-65
2023/10/30 05:36:10;;;;;;;8.90;5.30;;;14.40;84.00;;;;;;4925166;29;20071;-65
2023/10/30 05:38:36;;;;;;;9.25;5.15;;;14.40;84.00;;;;;;4924917;29;20098;-65
2023/10/30 05:41:03;;;;;;;8.70;5.75;;;14.40;83.90;;;;;;5202319;23;20155;-66
2023/10/30 05:43:29;;;;;;;8.68;5.20;;;14.40;83.90;;;;;;4939765;29;20051;-66
2023/10/30 05:45:56;;;;;;;8.25;5.80;;;14.40;83.90;;;;;;4924782;29;20075;-66
2023/10/30 05:48:22;;;;;;;8.32;5.32;;;14.40;84.10;;;;;;4924843;29;20051;-67
2023/10/30 05:50:48;;;;;;;11.38;8.32;;;14.40;84.10;;;;;;4912181;29;20424;-67
2023/10/30 05:53:14;;;;;;;9.30;6.72;;;14.40;84.00;;;;;;4902870;29;20033;-66
2023/10/30 05:55:40;;;;;;;13.32;9.35;;;14.40;83.90;;;;;;4903403;29;20053;-66
2023/10/30 05:58:06;;;;;;;16.35;10.80;;;14.50;84.00;;;;;;4903062;29;20029;-66
2023/10/30 06:00:32;;;;;;;10.40;6.40;;;14.50;84.00;;;;;;4902689;29;20481;-66
2023/10/30 06:02:58;;;;;;;9.75;5.78;;;14.50;84.10;;;;;;4902741;29;20099;-66
2023/10/30 06:05:24;;;;;;;9.30;5.80;;;14.50;83.90;;;;;;4903175;29;20165;-66
2023/10/30 06:07:51;;;;;;;9.70;5.70;;;14.50;83.90;;;;;;4902886;29;20024;-66
2023/10/30 06:12:52;;;;;;;9.75;5.05;;;14.60;84.10;;;;;;4918474;27;20067;-63
2023/10/30 06:15:18;;;;;;;8.85;5.15;;;14.60;84.00;;;;;;4921304;29;20028;-64
2023/10/30 06:17:44;;;;;;;9.93;5.60;;;14.60;84.00;;;;;;4921630;29;20352;-63
2023/10/30 06:20:11;;;;;;;7.95;4.63;;;14.60;83.90;;;;;;4921482;29;20039;-64
2023/10/30 06:22:37;;;;;;;8.25;4.82;;;14.60;84.10;;;;;;4921141;29;20032;-65
2023/10/30 06:25:03;;;;;;;10.27;4.88;;;14.60;84.10;;;;;;4921157;29;20160;-64
2023/10/30 06:27:32;;;;;;;9.00;4.47;;;14.70;83.90;;;;;;4921387;29;20159;-66
2023/10/30 06:29:58;;;;;;;7.22;4.03;;;14.70;84.10;;;;;;4921118;29;20028;-66
2023/10/30 06:32:24;;;;;;;7.80;3.92;;;14.70;83.90;;;;;;4920923;29;20092;-66
2023/10/30 06:34:50;;;;;;;7.88;4.45;;;14.70;84.00;;;;;;4921007;29;20028;-66
2023/10/30 06:37:21;;;;;;;6.07;4.10;;;14.80;84.00;;;;;;4920962;29;20036;-66
2023/10/30 06:39:47;;;;;;;7.47;4.13;;;14.80;84.00;;;;;;4920947;29;20024;-66
2023/10/30 06:42:13;;;;;;;8.50;4.00;;;14.90;84.10;;;;;;4921363;29;20403;-66
2023/10/30 06:44:39;;;;;;;5.00;3.33;;;14.90;84.00;;;;;;4921432;29;20035;-66
2023/10/30 06:47:05;;;;;;;7.97;3.30;;;14.90;83.80;;;;;;4920893;29;20199;-66
2023/10/30 06:49:34;;;;;;;5.00;3.53;;;14.90;83.80;;;;;;4921036;29;20032;-66
2023/10/30 06:52:00;;;;;;;7.97;3.63;;;15.00;83.80;;;;;;4920394;29;20386;-67
2023/10/30 06:54:30;;;;;;;4.30;3.28;;;15.00;84.00;;;;;;4920760;29;20032;-67
2023/10/30 06:56:56;;;;;;;9.50;4.65;;;14.90;83.70;;;;;;4921086;29;20032;-68
2023/10/30 06:59:23;;;;;;;6.28;3.70;;;15.00;84.10;;;;;;4920485;29;20024;-69
2023/10/30 07:01:49;;;;;;;6.43;4.20;;;15.00;84.00;;;;;;4919251;29;20115;-66
2023/10/30 07:04:16;;;;;;;6.35;3.80;;;15.00;84.20;;;;;;4920628;29;20099;-67
2023/10/30 07:06:43;;;;;;;6.10;3.97;;;15.10;84.20;;;;;;4920140;29;20338;-63
2023/10/30 07:09:10;;;;;;;7.30;3.70;;;15.10;84.10;;;;;;4920592;29;20069;-65
2023/10/30 07:11:37;;;;;;;6.03;3.85;;;15.10;84.20;;;;;;4920048;29;20063;-68
2023/10/30 07:14:04;;;;;;;6.97;3.97;;;15.20;84.20;;;;;;4920145;29;20035;-68
2023/10/30 07:16:30;;;;;;;7.70;4.28;;;15.20;84.10;;;;;;5149470;23;20060;-68
2023/10/30 07:18:57;;;;;;;7.03;4.25;;;15.20;84.00;;;;;;4919270;29;20031;-64
2023/10/30 07:21:24;;;;;;;7.70;4.97;;;15.30;84.20;;;;;;4920670;29;20072;-63
2023/10/30 07:23:49;;;;;;;8.05;4.40;;;15.20;83.90;;;;;;4920153;29;20027;-70
2023/10/30 07:26:16;;;;;;;6.20;4.22;;;15.30;84.10;;;;;;4919995;29;20115;-69
2023/10/30 07:28:43;;;;;;;5.47;3.90;;;15.30;84.10;;;;;;4920226;29;20024;-70
2023/10/30 07:31:09;;;;;;;9.45;5.20;;;15.30;84.10;;;;;;4920307;29;20034;-67
2023/10/30 07:33:35;;;;;;;8.07;4.05;;;15.40;84.70;;;;;;4920119;29;20024;-66
2023/10/30 07:36:01;;;;;;;7.88;4.57;;;15.40;84.50;;;;;;4919740;29;20338;-74
2023/10/30 07:38:28;;;;;;;10.95;4.22;;;15.40;84.40;;;;;;4920129;29;20111;-69
2023/10/30 07:40:54;;;;;;;10.20;5.47;;;15.40;84.20;;;;;;4919824;29;20035;-67
2023/10/30 07:43:23;;;;;;;8.38;5.25;;;15.50;84.30;;;;;;4919742;29;20024;-66
2023/10/30 07:45:53;;;;;;;7.70;4.70;;;15.50;84.20;;;;;;4919612;29;20111;-68
2023/10/30 07:48:22;;;;;;;7.07;4.70;;;15.50;84.20;;;;;;4919527;29;20091;-68
2023/10/30 07:50:48;;;;;;;10.25;4.30;;;15.50;84.20;;;;;;4919877;29;20051;-71
2023/10/30 07:53:17;;;;;;;11.95;4.70;;;15.50;84.10;;;;;;4919740;29;20055;-67
2023/10/30 07:55:45;;;;;;;7.07;4.53;;;15.60;84.20;;;;;;4920731;29;20103;-67
2023/10/30 07:58:12;;;;;;;12.02;7.07;;;15.60;84.20;;;;;;4924269;29;20357;-67
2023/10/30 08:00:39;;;;;;;12.77;9.43;;;15.60;84.10;;;;;;5185141;23;20116;-65
2023/10/30 08:03:06;;;;;;;9.73;7.40;;;15.60;84.10;;;;;;4902101;29;20032;-71
2023/10/30 08:05:32;;;;;;;10.45;5.43;;;15.60;84.10;;;;;;4905854;29;20063;-69
2023/10/30 08:07:58;;;;;;;9.30;6.40;;;15.60;84.20;;;;;;4899466;29;20119;-67
2023/10/30 08:12:56;;;;;;;9.57;5.00;;;15.70;84.20;;;;;;4915580;29;20052;-69
2023/10/30 08:15:22;;;;;;;6.85;4.15;;;15.70;84.30;;;;;;4933845;29;20024;-70
2023/10/30 08:17:48;;;;;;;7.88;4.50;;;15.70;84.20;;;;;;4932980;29;20059;-71
2023/10/30 08:20:14;;;;;;;7.30;4.13;;;15.70;84.00;;;;;;4918733;29;20028;-70
2023/10/30 08:22:40;;;;;;;8.15;4.05;;;15.70;84.10;;;;;;4900788;29;20362;-69
2023/10/30 08:25:06;;;;;;;8.27;4.25;;;15.60;84.10;;;;;;4900155;29;20028;-72
2023/10/30 08:27:35;;;;;;;8.23;4.30;;;15.70;84.10;;;;;;4900193;29;20076;-71
2023/10/30 08:30:02;;;;;;;8.43;3.97;;;15.70;84.00;;;;;;4903312;29;20020;-72
2023/10/30 08:32:28;;;;;;;7.28;3.92;;;15.70;84.10;;;;;;4915627;29;20036;-71
2023/10/30 08:34:56;;;;;;;7.55;3.92;;;15.70;84.20;;;;;;4918932;29;20330;-71
2023/10/30 08:37:21;;;;;;;6.45;3.90;;;15.70;84.20;;;;;;4918972;29;20050;-70
2023/10/30 08:39:47;;;;;;;7.03;3.95;;;15.70;84.20;;;;;;4918920;29;20353;-70
2023/10/30 08:42:13;;;;;;;7.07;4.07;;;15.70;84.20;;;;;;4918820;29;20028;-70
2023/10/30 08:44:39;;;;;;;11.57;5.32;;;15.80;84.20;;;;;;4918720;29;20068;-68
2023/10/30 08:47:05;;;;;;;7.28;4.97;;;15.80;84.20;;;;;;4918963;29;20067;-68
2023/10/30 08:49:32;;;;;;;7.90;4.25;;;15.80;84.20;;;;;;4918902;29;20030;-67
2023/10/30 08:51:58;;;;;;;7.05;4.10;;;15.80;84.20;;;;;;4919062;29;20090;-70
2023/10/30 08:54:24;;;;;;;10.15;4.10;;;15.80;84.20;;;;;;4919198;29;20111;-71
2023/10/30 08:56:50;;;;;;;9.73;4.40;;;15.80;84.20;;;;;;4918718;29;20034;-67
2023/10/30 08:59:18;;;;;;;6.57;4.13;;;15.90;84.30;;;;;;4917785;29;20458;-67
2023/10/30 09:01:44;;;;;;;7.72;4.10;;;15.80;84.30;;;;;;4918700;29;20124;-67
2023/10/30 09:04:10;;;;;;;6.03;3.85;;;15.80;84.40;;;;;;4918977;29;20509;-66
2023/10/30 09:09:05;;;;;;;8.73;3.60;;;15.90;84.40;;;;;;4915763;29;20040;-69
2023/10/30 09:11:31;;;;;;;8.07;3.40;;;15.90;84.40;;;;;;4918664;29;20036;-67
2023/10/30 09:13:57;;;;;;;8.20;3.97;;;15.90;84.40;;;;;;4918636;29;20071;-68
2023/10/30 09:16:23;;;;;;;7.82;3.53;;;15.90;84.50;;;;;;4936939;29;20508;-67
2023/10/30 09:18:49;;;;;;;5.80;3.60;;;15.90;84.50;;;;;;4937577;29;20031;-66
2023/10/30 09:21:15;;;;;;;6.90;4.25;;;15.90;84.30;;;;;;4937640;29;20024;-67
2023/10/30 09:23:44;;;;;;;8.02;4.00;;;15.90;84.30;;;;;;4938108;29;20102;-67
2023/10/30 09:26:10;;;;;;;9.65;4.05;;;15.80;84.30;;;;;;4940532;29;20027;-68
2023/10/30 09:28:37;;;;;;;10.27;4.07;;;15.80;84.40;;;;;;4941053;29;20083;-67
2023/10/30 09:31:03;;;;;;;9.50;4.20;;;15.90;84.40;;;;;;4938952;29;20038;-67
2023/10/30 09:33:29;;;;;;;7.95;3.88;;;15.80;84.30;;;;;;4941077;29;20122;-66
2023/10/30 09:35:56;;;;;;;6.22;3.78;;;15.80;84.40;;;;;;4941241;29;20103;-67
2023/10/30 09:38:22;;;;;;;6.78;3.90;;;15.80;84.40;;;;;;4928419;29;20035;-67
2023/10/30 09:41:01;;;;;;;6.70;3.70;;;15.80;84.50;;;;;;4922041;29;20325;-66
2023/10/30 09:43:30;;;;;;;8.15;3.92;;;15.80;84.40;;;;;;4922189;29;20060;-66
2023/10/30 09:45:59;;;;;;;8.57;4.43;;;15.80;84.50;;;;;;4921652;29;20028;-66
2023/10/30 09:48:25;;;;;;;7.40;4.30;;;15.80;84.50;;;;;;4921754;29;20060;-67
2023/10/30 09:50:52;;;;;;;7.68;4.45;;;15.80;84.50;;;;;;4920791;29;20465;-67
2023/10/30 09:53:20;;;;;;;7.38;4.35;;;15.80;84.50;;;;;;4921167;29;20367;-66
2023/10/30 09:55:49;;;;;;;9.52;4.28;;;15.80;84.60;;;;;;4920677;29;20024;-67
2023/10/30 09:58:15;;;;;;;10.45;5.25;;;15.80;84.90;;;;;;4919481;29;20028;-67
2023/10/30 10:00:46;;;;;;;8.95;4.85;;;15.80;85.00;;;;;;4921603;29;20449;-67
2023/10/30 10:03:12;;;;;;;8.80;4.85;;;15.70;84.80;;;;;;4921960;29;20480;-67
2023/10/30 10:05:38;;;;;;;8.23;4.50;;;15.70;85.10;;;;;;4921643;29;20052;-68
2023/10/30 10:08:05;;;;;;;8.30;4.68;;;15.60;85.00;;;;;;4921309;29;20079;-66
2023/10/30 10:10:57;;;;;;;12.13;6.47;;;15.60;85.20;;;;;;4921752;29;20123;-67
2023/10/30 10:13:24;;;;;;;8.57;4.80;;;15.60;85.10;;;;;;4920500;29;20020;-66
2023/10/30 10:15:51;;;;;;;8.57;4.70;;;15.50;85.40;;;;;;4920444;29;20119;-68
2023/10/30 10:18:28;;;;;;;7.10;4.40;;;15.50;85.60;;;;;;4921574;29;20035;-67
2023/10/30 10:21:05;;;;;;;7.00;4.40;;;15.50;85.50;;;;;;4921350;29;20039;-67
2023/10/30 10:23:33;;;;;;;9.85;4.68;;;15.50;85.60;;;;;;4904602;29;20067;-67
2023/10/30 10:26:13;;;;;;;7.05;4.47;;;15.60;85.70;;;;;;4921469;29;20036;-67
2023/10/30 10:28:39;;;;;;;7.15;4.25;;;15.60;85.70;;;;;;4921382;29;20036;-67
2023/10/30 10:31:05;;;;;;;8.65;5.60;;;15.60;85.60;;;;;;4921651;29;20035;-67
2023/10/30 10:33:33;;;;;;;12.80;5.50;;;15.60;85.60;;;;;;5201408;23;20052;-69
2023/10/30 10:36:01;;;;;;;10.07;5.40;;;15.60;86.30;;;;;;4940100;29;20016;-69
2023/10/30 10:38:28;;;;;;;12.82;5.38;;;15.70;86.10;;;;;;4940252;29;20028;-69
2023/10/30 10:40:56;;;;;;;8.55;5.07;;;15.60;86.40;;;;;;4938977;29;20016;-69
2023/10/30 10:43:24;;;;;;;8.80;5.20;;;15.70;86.30;;;;;;4929038;29;20039;-70
2023/10/30 10:45:54;;;;;;;10.98;4.88;;;15.70;86.20;;;;;;4921378;29;20035;-70
2023/10/30 10:48:23;;;;;;;8.52;4.57;;;15.70;86.10;;;;;;4920880;29;20330;-70
2023/10/30 10:50:50;;;;;;;8.80;4.30;;;15.70;85.90;;;;;;4921327;29;20043;-70
2023/10/30 10:53:19;;;;;;;9.98;5.30;;;15.80;85.70;;;;;;4920576;29;20035;-70
2023/10/30 10:55:47;;;;;;;8.90;5.07;;;15.80;85.60;;;;;;4921191;29;20020;-70
2023/10/30 10:58:29;;;;;;;9.95;5.10;;;15.80;85.60;;;;;;4919785;29;20034;-70
2023/10/30 11:00:56;;;;;;;13.73;6.38;;;15.80;85.70;;;;;;4920890;29;20031;-70
2023/10/30 11:03:22;;;;;;;10.30;5.95;;;15.90;85.80;;;;;;4919574;29;20064;-70
2023/10/30 11:05:51;;;;;;;10.55;5.43;;;15.90;85.70;;;;;;4920799;29;20016;-70
2023/10/30 11:08:28;;;;;;;13.77;6.80;;;15.90;85.60;;;;;;4920459;29;20035;-69
2023/10/30 11:11:20;;;;;;;11.80;6.47;;;15.90;85.90;;;;;;4920937;29;20035;-69
2023/10/30 11:14:05;;;;;;;10.30;6.03;;;15.90;85.70;;;;;;4919396;29;20032;-69
2023/10/30 11:16:38;;;;;;;9.70;5.88;;;15.90;85.70;;;;;;4920250;29;20040;-69
2023/10/30 11:19:06;;;;;;;;;;;16.00;85.70;;;;;;4919743;29;20024;-69
2023/10/30 11:21:36;;;;;;;12.20;6.53;;;16.00;86.00;;;;;;4920710;29;19907;-69
2023/10/30 11:24:02;;;;;;;8.52;5.47;;;16.00;85.70;;;;;;4920226;29;20058;-70
2023/10/30 11:26:36;;;;;;;10.25;6.35;;;16.10;85.70;;;;;;4920073;29;20035;-70
2023/10/30 11:29:06;;;;;;;8.75;5.32;;;16.00;85.60;;;;;;4920630;29;20334;-69
2023/10/30 11:31:54;;;;;;;10.82;6.15;;;16.00;85.60;;;;;;4919993;29;20067;-70
2023/10/30 11:34:33;;;;;;;10.10;6.15;;;16.10;85.50;;;;;;4918786;29;20052;-70
2023/10/30 11:37:04;;;;;;;9.98;5.38;;;16.00;85.60;;;;;;4919019;29;20505;-70
2023/10/30 11:39:35;;;;;;;8.98;5.00;;;16.10;85.40;;;;;;4919936;29;20068;-70
2023/10/30 11:44:36;;;;;;;9.00;5.75;;;16.00;85.60;;;;;;5031417;23;20376;-70
2023/10/30 11:47:03;;;;;;;9.45;4.90;;;16.00;85.60;;;;;;4938718;29;20464;-70
2023/10/30 11:49:33;;;;;;;10.07;5.32;;;16.00;85.80;;;;;;4938579;29;20030;-70
2023/10/30 11:52:08;;;;;;;9.07;5.38;;;16.10;85.70;;;;;;4922466;29;20019;-70
2023/10/30 11:54:35;;;;;;;7.80;4.93;;;16.00;85.60;;;;;;4921257;29;20036;-70
2023/10/30 11:57:01;;;;;;;9.20;5.40;;;16.00;85.60;;;;;;4919711;29;20043;-70
2023/10/30 11:59:28;;;;;;;11.77;5.93;;;16.00;85.50;;;;;;4918708;29;20035;-70
2023/10/30 12:01:58;;;;;;;10.45;5.53;;;16.00;85.50;;;;;;4919792;29;20056;-70
2023/10/30 12:04:28;;;;;;;10.63;5.35;;;16.00;85.40;;;;;;4919754;29;20118;-70
2023/10/30 12:06:54;;;;;;;12.15;6.07;;;16.10;85.50;;;;;;4919152;29;20035;-70
2023/10/30 12:09:21;;;;;;;10.43;5.50;;;16.00;85.50;;;;;;4918463;29;20032;-70
2023/10/30 12:11:49;;;;;;;10.70;5.80;;;16.10;85.60;;;;;;4919386;29;20031;-70
2023/10/30 12:14:18;;;;;;;10.75;6.07;;;16.00;85.70;;;;;;4918533;29;20066;-70
2023/10/30 12:16:48;;;;;;;8.35;5.10;;;16.10;85.60;;;;;;4918721;29;20199;-70
2023/10/30 12:19:18;;;;;;;8.98;5.10;;;16.00;85.60;;;;;;4919775;29;20028;-70
2023/10/30 12:21:47;;;;;;;8.20;4.93;;;16.00;85.70;;;;;;4918368;29;20052;-70
2023/10/30 12:24:19;;;;;;;9.20;5.07;;;16.00;85.60;;;;;;4919171;29;20024;-71
2023/10/30 12:26:49;;;;;;;9.57;5.70;;;16.00;85.70;;;;;;4919689;29;20024;-71
2023/10/30 12:29:22;;;;;;;7.38;4.57;;;16.00;85.80;;;;;;4919128;29;20095;-70
2023/10/30 12:32:07;;;;;;;8.55;5.55;;;16.00;85.80;;;;;;4919096;29;20446;-70
2023/10/30 12:34:36;;;;;;;10.45;5.70;;;16.00;85.90;;;;;;4918982;29;20115;-70
2023/10/30 12:37:18;;;;;;;10.07;5.15;;;16.00;85.80;;;;;;4919130;29;20052;-70
2023/10/30 12:40:07;;;;;;;8.95;4.90;;;16.00;85.60;;;;;;4918142;29;20032;-70
2023/10/30 12:42:35;;;;;;;8.25;5.07;;;16.00;85.60;;;;;;4919287;29;20055;-69
2023/10/30 12:45:09;;;;;;;8.35;4.97;;;16.00;85.70;;;;;;4917855;29;20072;-71
2023/10/30 12:47:36;;;;;;;9.02;5.30;;;16.00;85.70;;;;;;4918989;29;20040;-69
2023/10/30 12:50:03;;;;;;;9.98;4.85;;;16.00;85.60;;;;;;4919193;29;20032;-70
2023/10/30 12:54:59;;;;;;;9.63;4.88;;;16.00;85.60;;;;;;5199946;23;20056;-66
2023/10/30 12:57:25;;;;;;;15.85;9.88;;;16.00;85.40;;;;;;4937728;29;20024;-67
2023/10/30 12:59:51;;;;;;;9.30;5.55;;;16.00;85.50;;;;;;4940459;29;20058;-67